sensor_id;sensor_type;location;lat;lon;timestamp;P1;durP1;ratioP1;P2;durP2;ratioP2
79212;SDS011;68639;52.380;9.822;2023-03-19T00:00:54;30.97;;;19.67;;
79212;SDS011;68639;52.380;9.822;2023-03-19T00:03:19;32.57;;;19.90;;
79212;SDS011;68639;52.380;9.822;2023-03-19T00:05:51;30.70;;;19.97;;
79212;SDS011;68639;52.380;9.822;2023-03-19T00:08:17;31.97;;;19.33;;
79212;SDS011;68639;52.380;9.822;2023-03-19T00:10:42;27.30;;;18.27;;
79212;SDS011;68639;52.380;9.822;2023-03-19T00:13:07;36.73;;;19.80;;
79212;SDS011;68639;52.380;9.822;2023-03-19T00:15:34;26.70;;;17.20;;
79212;SDS011;68639;52.380;9.822;2023-03-19T00:17:59;26.87;;;17.77;;
79212;SDS011;68639;52.380;9.822;2023-03-19T00:20:24;24.47;;;17.00;;
79212;SDS011;68639;52.380;9.822;2023-03-19T00:22:50;22.30;;;14.23;;
79212;SDS011;68639;52.380;9.822;2023-03-19T00:25:15;23.37;;;15.33;;
79212;SDS011;68639;52.380;9.822;2023-03-19T00:27:41;21.77;;;14.93;;
79212;SDS011;68639;52.380;9.822;2023-03-19T00:30:07;17.67;;;12.10;;
79212;SDS011;68639;52.380;9.822;2023-03-19T00:32:33;13.67;;;9.60;;
79212;SDS011;68639;52.380;9.822;2023-03-19T00:34:59;13.53;;;9.07;;
79212;SDS011;68639;52.380;9.822;2023-03-19T00:37:25;11.10;;;8.00;;
79212;SDS011;68639;52.380;9.822;2023-03-19T00:39:50;12.47;;;8.10;;
79212;SDS011;68639;52.380;9.822;2023-03-19T00:42:15;10.07;;;7.40;;
79212;SDS011;68639;52.380;9.822;2023-03-19T00:44:40;10.70;;;7.97;;
79212;SDS011;68639;52.380;9.822;2023-03-19T00:47:06;14.77;;;8.23;;
79212;SDS011;68639;52.380;9.822;2023-03-19T00:49:31;14.43;;;8.53;;
79212;SDS011;68639;52.380;9.822;2023-03-19T00:51:56;15.03;;;8.80;;
79212;SDS011;68639;52.380;9.822;2023-03-19T00:54:21;12.13;;;8.30;;
79212;SDS011;68639;52.380;9.822;2023-03-19T00:56:47;12.87;;;9.03;;
79212;SDS011;68639;52.380;9.822;2023-03-19T00:59:12;15.00;;;8.67;;
79212;SDS011;68639;52.380;9.822;2023-03-19T01:01:37;14.40;;;9.10;;
79212;SDS011;68639;52.380;9.822;2023-03-19T01:04:03;14.83;;;9.53;;
79212;SDS011;68639;52.380;9.822;2023-03-19T01:06:28;13.60;;;9.23;;
79212;SDS011;68639;52.380;9.822;2023-03-19T01:08:53;14.53;;;9.37;;
79212;SDS011;68639;52.380;9.822;2023-03-19T01:11:18;13.97;;;9.17;;
79212;SDS011;68639;52.380;9.822;2023-03-19T01:13:44;14.70;;;9.70;;
79212;SDS011;68639;52.380;9.822;2023-03-19T01:16:10;13.83;;;9.80;;
79212;SDS011;68639;52.380;9.822;2023-03-19T01:18:36;15.43;;;9.43;;
79212;SDS011;68639;52.380;9.822;2023-03-19T01:21:01;15.80;;;9.53;;
79212;SDS011;68639;52.380;9.822;2023-03-19T01:23:27;17.13;;;11.07;;
79212;SDS011;68639;52.380;9.822;2023-03-19T01:25:53;14.70;;;10.10;;
79212;SDS011;68639;52.380;9.822;2023-03-19T01:28:18;13.17;;;10.13;;
79212;SDS011;68639;52.380;9.822;2023-03-19T01:30:44;15.90;;;10.37;;
79212;SDS011;68639;52.380;9.822;2023-03-19T01:33:09;15.83;;;11.87;;
79212;SDS011;68639;52.380;9.822;2023-03-19T01:35:35;16.57;;;10.67;;
79212;SDS011;68639;52.380;9.822;2023-03-19T01:38:00;16.57;;;11.77;;
79212;SDS011;68639;52.380;9.822;2023-03-19T01:40:26;16.37;;;11.70;;
79212;SDS011;68639;52.380;9.822;2023-03-19T01:42:52;17.33;;;11.73;;
79212;SDS011;68639;52.380;9.822;2023-03-19T01:45:34;17.30;;;11.83;;
79212;SDS011;68639;52.380;9.822;2023-03-19T01:48:00;19.07;;;13.43;;
79212;SDS011;68639;52.380;9.822;2023-03-19T01:53:03;19.03;;;12.50;;
79212;SDS011;68639;52.380;9.822;2023-03-19T01:55:28;16.67;;;11.80;;
79212;SDS011;68639;52.380;9.822;2023-03-19T01:57:54;16.43;;;11.43;;
79212;SDS011;68639;52.380;9.822;2023-03-19T02:00:20;16.83;;;11.27;;
79212;SDS011;68639;52.380;9.822;2023-03-19T02:02:47;16.67;;;10.43;;
79212;SDS011;68639;52.380;9.822;2023-03-19T02:05:14;13.13;;;9.43;;
79212;SDS011;68639;52.380;9.822;2023-03-19T02:07:40;16.73;;;9.77;;
79212;SDS011;68639;52.380;9.822;2023-03-19T02:10:10;16.07;;;10.47;;
79212;SDS011;68639;52.380;9.822;2023-03-19T02:12:36;13.00;;;8.73;;
79212;SDS011;68639;52.380;9.822;2023-03-19T02:15:01;14.63;;;10.03;;
79212;SDS011;68639;52.380;9.822;2023-03-19T02:17:27;12.17;;;8.63;;
79212;SDS011;68639;52.380;9.822;2023-03-19T02:22:25;12.83;;;8.87;;
79212;SDS011;68639;52.380;9.822;2023-03-19T02:24:52;13.97;;;9.27;;
79212;SDS011;68639;52.380;9.822;2023-03-19T02:27:20;14.40;;;9.67;;
79212;SDS011;68639;52.380;9.822;2023-03-19T02:29:45;15.20;;;10.33;;
79212;SDS011;68639;52.380;9.822;2023-03-19T02:32:11;16.03;;;9.63;;
79212;SDS011;68639;52.380;9.822;2023-03-19T02:34:40;17.67;;;10.63;;
79212;SDS011;68639;52.380;9.822;2023-03-19T02:37:16;15.90;;;10.23;;
79212;SDS011;68639;52.380;9.822;2023-03-19T02:42:28;16.90;;;9.80;;
79212;SDS011;68639;52.380;9.822;2023-03-19T02:44:54;14.17;;;9.53;;
79212;SDS011;68639;52.380;9.822;2023-03-19T02:47:20;16.07;;;10.80;;
79212;SDS011;68639;52.380;9.822;2023-03-19T02:49:45;14.77;;;10.00;;
79212;SDS011;68639;52.380;9.822;2023-03-19T02:52:11;15.67;;;9.33;;
79212;SDS011;68639;52.380;9.822;2023-03-19T02:54:36;14.90;;;9.90;;
79212;SDS011;68639;52.380;9.822;2023-03-19T02:57:02;17.90;;;12.07;;
79212;SDS011;68639;52.380;9.822;2023-03-19T02:59:28;15.83;;;11.30;;
79212;SDS011;68639;52.380;9.822;2023-03-19T03:01:53;16.80;;;11.30;;
79212;SDS011;68639;52.380;9.822;2023-03-19T03:04:18;15.70;;;10.23;;
79212;SDS011;68639;52.380;9.822;2023-03-19T03:06:43;15.37;;;10.93;;
79212;SDS011;68639;52.380;9.822;2023-03-19T03:09:09;17.33;;;11.57;;
79212;SDS011;68639;52.380;9.822;2023-03-19T03:11:34;21.40;;;13.57;;
79212;SDS011;68639;52.380;9.822;2023-03-19T03:14:00;20.40;;;13.00;;
79212;SDS011;68639;52.380;9.822;2023-03-19T03:16:25;20.20;;;13.70;;
79212;SDS011;68639;52.380;9.822;2023-03-19T03:18:51;23.30;;;13.33;;
79212;SDS011;68639;52.380;9.822;2023-03-19T03:21:16;21.93;;;14.00;;
79212;SDS011;68639;52.380;9.822;2023-03-19T03:23:44;18.17;;;12.50;;
79212;SDS011;68639;52.380;9.822;2023-03-19T03:26:09;21.43;;;12.60;;
79212;SDS011;68639;52.380;9.822;2023-03-19T03:28:35;22.10;;;13.80;;
79212;SDS011;68639;52.380;9.822;2023-03-19T03:31:00;20.97;;;13.60;;
79212;SDS011;68639;52.380;9.822;2023-03-19T03:33:26;24.47;;;16.10;;
79212;SDS011;68639;52.380;9.822;2023-03-19T03:35:51;21.87;;;15.47;;
79212;SDS011;68639;52.380;9.822;2023-03-19T03:38:16;25.37;;;15.50;;
79212;SDS011;68639;52.380;9.822;2023-03-19T03:40:42;22.67;;;16.37;;
79212;SDS011;68639;52.380;9.822;2023-03-19T03:43:07;27.53;;;16.90;;
79212;SDS011;68639;52.380;9.822;2023-03-19T03:45:34;25.50;;;15.60;;
79212;SDS011;68639;52.380;9.822;2023-03-19T03:47:59;25.87;;;16.57;;
79212;SDS011;68639;52.380;9.822;2023-03-19T03:50:24;24.87;;;15.40;;
79212;SDS011;68639;52.380;9.822;2023-03-19T03:52:49;26.67;;;17.47;;
79212;SDS011;68639;52.380;9.822;2023-03-19T03:55:15;28.30;;;16.63;;
79212;SDS011;68639;52.380;9.822;2023-03-19T03:57:40;22.57;;;15.70;;
79212;SDS011;68639;52.380;9.822;2023-03-19T04:00:06;26.17;;;16.73;;
79212;SDS011;68639;52.380;9.822;2023-03-19T04:02:31;22.60;;;15.40;;
79212;SDS011;68639;52.380;9.822;2023-03-19T04:04:56;25.37;;;16.83;;
79212;SDS011;68639;52.380;9.822;2023-03-19T04:07:21;24.13;;;15.70;;
79212;SDS011;68639;52.380;9.822;2023-03-19T04:09:47;25.83;;;16.30;;
79212;SDS011;68639;52.380;9.822;2023-03-19T04:12:13;26.63;;;15.80;;
79212;SDS011;68639;52.380;9.822;2023-03-19T04:14:38;24.07;;;15.47;;
79212;SDS011;68639;52.380;9.822;2023-03-19T04:17:03;24.80;;;15.40;;
79212;SDS011;68639;52.380;9.822;2023-03-19T04:19:29;24.30;;;14.63;;
79212;SDS011;68639;52.380;9.822;2023-03-19T04:21:55;23.03;;;15.13;;
79212;SDS011;68639;52.380;9.822;2023-03-19T04:24:21;24.33;;;15.97;;
79212;SDS011;68639;52.380;9.822;2023-03-19T04:26:46;22.10;;;14.93;;
79212;SDS011;68639;52.380;9.822;2023-03-19T04:29:13;22.27;;;15.40;;
79212;SDS011;68639;52.380;9.822;2023-03-19T04:31:38;25.27;;;16.90;;
79212;SDS011;68639;52.380;9.822;2023-03-19T04:34:04;23.33;;;16.20;;
79212;SDS011;68639;52.380;9.822;2023-03-19T04:36:29;24.13;;;15.03;;
79212;SDS011;68639;52.380;9.822;2023-03-19T04:38:55;24.23;;;14.60;;
79212;SDS011;68639;52.380;9.822;2023-03-19T04:41:20;31.13;;;17.60;;
79212;SDS011;68639;52.380;9.822;2023-03-19T04:43:46;23.50;;;15.67;;
79212;SDS011;68639;52.380;9.822;2023-03-19T04:46:11;22.60;;;15.47;;
79212;SDS011;68639;52.380;9.822;2023-03-19T04:48:37;25.10;;;16.00;;
79212;SDS011;68639;52.380;9.822;2023-03-19T04:51:03;23.50;;;15.73;;
79212;SDS011;68639;52.380;9.822;2023-03-19T04:53:29;24.63;;;16.03;;
79212;SDS011;68639;52.380;9.822;2023-03-19T04:55:54;23.07;;;15.00;;
79212;SDS011;68639;52.380;9.822;2023-03-19T04:58:20;28.80;;;15.33;;
79212;SDS011;68639;52.380;9.822;2023-03-19T05:00:45;24.53;;;15.50;;
79212;SDS011;68639;52.380;9.822;2023-03-19T05:03:11;25.83;;;14.70;;
79212;SDS011;68639;52.380;9.822;2023-03-19T05:05:37;26.40;;;16.90;;
79212;SDS011;68639;52.380;9.822;2023-03-19T05:08:02;33.43;;;18.10;;
79212;SDS011;68639;52.380;9.822;2023-03-19T05:10:27;24.87;;;15.77;;
79212;SDS011;68639;52.380;9.822;2023-03-19T05:12:53;25.30;;;16.33;;
79212;SDS011;68639;52.380;9.822;2023-03-19T05:15:18;30.00;;;19.37;;
79212;SDS011;68639;52.380;9.822;2023-03-19T05:17:43;33.00;;;19.63;;
79212;SDS011;68639;52.380;9.822;2023-03-19T05:20:09;26.30;;;16.60;;
79212;SDS011;68639;52.380;9.822;2023-03-19T05:22:35;26.17;;;16.73;;
79212;SDS011;68639;52.380;9.822;2023-03-19T05:25:01;25.07;;;16.87;;
79212;SDS011;68639;52.380;9.822;2023-03-19T05:27:26;30.93;;;16.47;;
79212;SDS011;68639;52.380;9.822;2023-03-19T05:29:51;26.43;;;16.63;;
79212;SDS011;68639;52.380;9.822;2023-03-19T05:32:16;28.97;;;19.30;;
79212;SDS011;68639;52.380;9.822;2023-03-19T05:34:43;26.83;;;18.10;;
79212;SDS011;68639;52.380;9.822;2023-03-19T05:37:08;27.90;;;17.40;;
79212;SDS011;68639;52.380;9.822;2023-03-19T05:39:33;25.00;;;17.30;;
79212;SDS011;68639;52.380;9.822;2023-03-19T05:41:59;24.20;;;16.43;;
79212;SDS011;68639;52.380;9.822;2023-03-19T05:44:24;22.33;;;15.53;;
79212;SDS011;68639;52.380;9.822;2023-03-19T05:46:49;25.33;;;17.30;;
79212;SDS011;68639;52.380;9.822;2023-03-19T05:49:15;22.13;;;15.97;;
79212;SDS011;68639;52.380;9.822;2023-03-19T05:51:40;21.20;;;15.33;;
79212;SDS011;68639;52.380;9.822;2023-03-19T05:54:05;26.67;;;15.97;;
79212;SDS011;68639;52.380;9.822;2023-03-19T05:56:31;24.83;;;16.37;;
79212;SDS011;68639;52.380;9.822;2023-03-19T05:58:56;22.30;;;14.83;;
79212;SDS011;68639;52.380;9.822;2023-03-19T06:01:22;23.00;;;14.47;;
79212;SDS011;68639;52.380;9.822;2023-03-19T06:03:47;23.40;;;15.90;;
79212;SDS011;68639;52.380;9.822;2023-03-19T06:06:12;21.23;;;15.30;;
79212;SDS011;68639;52.380;9.822;2023-03-19T06:08:38;21.90;;;16.73;;
79212;SDS011;68639;52.380;9.822;2023-03-19T06:11:03;25.03;;;16.67;;
79212;SDS011;68639;52.380;9.822;2023-03-19T06:13:28;20.93;;;17.30;;
79212;SDS011;68639;52.380;9.822;2023-03-19T06:15:53;29.70;;;19.40;;
79212;SDS011;68639;52.380;9.822;2023-03-19T06:18:19;25.57;;;17.30;;
79212;SDS011;68639;52.380;9.822;2023-03-19T06:20:45;22.13;;;16.73;;
79212;SDS011;68639;52.380;9.822;2023-03-19T06:23:10;21.90;;;16.97;;
79212;SDS011;68639;52.380;9.822;2023-03-19T06:25:35;23.20;;;16.27;;
79212;SDS011;68639;52.380;9.822;2023-03-19T06:28:01;22.47;;;16.93;;
79212;SDS011;68639;52.380;9.822;2023-03-19T06:30:26;21.63;;;16.10;;
79212;SDS011;68639;52.380;9.822;2023-03-19T06:32:52;20.67;;;15.20;;
79212;SDS011;68639;52.380;9.822;2023-03-19T06:35:17;19.17;;;14.47;;
79212;SDS011;68639;52.380;9.822;2023-03-19T06:37:42;19.77;;;15.40;;
79212;SDS011;68639;52.380;9.822;2023-03-19T06:40:08;22.93;;;15.60;;
79212;SDS011;68639;52.380;9.822;2023-03-19T06:42:33;22.10;;;15.10;;
79212;SDS011;68639;52.380;9.822;2023-03-19T06:44:58;20.07;;;14.20;;
79212;SDS011;68639;52.380;9.822;2023-03-19T06:47:24;20.40;;;14.67;;
79212;SDS011;68639;52.380;9.822;2023-03-19T06:49:50;22.87;;;15.00;;
79212;SDS011;68639;52.380;9.822;2023-03-19T06:52:15;23.00;;;13.90;;
79212;SDS011;68639;52.380;9.822;2023-03-19T06:54:40;17.37;;;13.47;;
79212;SDS011;68639;52.380;9.822;2023-03-19T06:57:05;15.07;;;11.90;;
79212;SDS011;68639;52.380;9.822;2023-03-19T06:59:31;14.23;;;10.93;;
79212;SDS011;68639;52.380;9.822;2023-03-19T07:01:56;17.97;;;11.77;;
79212;SDS011;68639;52.380;9.822;2023-03-19T07:04:21;16.00;;;11.33;;
79212;SDS011;68639;52.380;9.822;2023-03-19T07:06:46;17.47;;;11.27;;
79212;SDS011;68639;52.380;9.822;2023-03-19T07:09:11;14.50;;;9.80;;
79212;SDS011;68639;52.380;9.822;2023-03-19T07:11:37;13.77;;;9.10;;
79212;SDS011;68639;52.380;9.822;2023-03-19T07:14:02;14.23;;;9.77;;
79212;SDS011;68639;52.380;9.822;2023-03-19T07:16:28;16.80;;;10.23;;
79212;SDS011;68639;52.380;9.822;2023-03-19T07:18:53;14.00;;;9.53;;
79212;SDS011;68639;52.380;9.822;2023-03-19T07:21:18;15.43;;;9.37;;
79212;SDS011;68639;52.380;9.822;2023-03-19T07:23:43;16.33;;;10.03;;
79212;SDS011;68639;52.380;9.822;2023-03-19T07:26:11;13.63;;;10.17;;
79212;SDS011;68639;52.380;9.822;2023-03-19T07:28:37;14.70;;;9.00;;
79212;SDS011;68639;52.380;9.822;2023-03-19T07:31:02;11.80;;;9.07;;
79212;SDS011;68639;52.380;9.822;2023-03-19T07:33:27;11.37;;;7.60;;
79212;SDS011;68639;52.380;9.822;2023-03-19T07:35:52;15.90;;;8.63;;
79212;SDS011;68639;52.380;9.822;2023-03-19T07:38:18;11.50;;;7.63;;
79212;SDS011;68639;52.380;9.822;2023-03-19T07:40:43;13.67;;;9.23;;
79212;SDS011;68639;52.380;9.822;2023-03-19T07:43:08;15.40;;;9.70;;
79212;SDS011;68639;52.380;9.822;2023-03-19T07:45:33;13.03;;;8.30;;
79212;SDS011;68639;52.380;9.822;2023-03-19T07:47:59;11.40;;;7.03;;
79212;SDS011;68639;52.380;9.822;2023-03-19T07:50:27;10.23;;;7.27;;
79212;SDS011;68639;52.380;9.822;2023-03-19T07:52:52;13.10;;;7.57;;
79212;SDS011;68639;52.380;9.822;2023-03-19T07:55:18;10.63;;;5.70;;
79212;SDS011;68639;52.380;9.822;2023-03-19T07:57:43;9.90;;;6.20;;
79212;SDS011;68639;52.380;9.822;2023-03-19T08:00:09;8.03;;;4.90;;
79212;SDS011;68639;52.380;9.822;2023-03-19T08:02:34;10.53;;;5.20;;
79212;SDS011;68639;52.380;9.822;2023-03-19T08:05:00;14.10;;;5.40;;
79212;SDS011;68639;52.380;9.822;2023-03-19T08:07:26;11.53;;;4.70;;
79212;SDS011;68639;52.380;9.822;2023-03-19T08:09:51;9.90;;;4.70;;
79212;SDS011;68639;52.380;9.822;2023-03-19T08:12:17;6.67;;;4.30;;
79212;SDS011;68639;52.380;9.822;2023-03-19T08:14:42;8.80;;;4.20;;
79212;SDS011;68639;52.380;9.822;2023-03-19T08:17:07;8.00;;;4.13;;
79212;SDS011;68639;52.380;9.822;2023-03-19T08:19:32;10.23;;;3.97;;
79212;SDS011;68639;52.380;9.822;2023-03-19T08:21:57;8.70;;;4.03;;
79212;SDS011;68639;52.380;9.822;2023-03-19T08:24:23;8.27;;;3.90;;
79212;SDS011;68639;52.380;9.822;2023-03-19T08:26:48;7.33;;;3.83;;
79212;SDS011;68639;52.380;9.822;2023-03-19T08:29:13;7.17;;;3.80;;
79212;SDS011;68639;52.380;9.822;2023-03-19T08:31:39;11.07;;;4.43;;
79212;SDS011;68639;52.380;9.822;2023-03-19T08:34:04;9.10;;;3.30;;
79212;SDS011;68639;52.380;9.822;2023-03-19T08:36:30;7.83;;;3.20;;
79212;SDS011;68639;52.380;9.822;2023-03-19T08:38:56;8.17;;;2.90;;
79212;SDS011;68639;52.380;9.822;2023-03-19T08:41:22;6.40;;;2.70;;
79212;SDS011;68639;52.380;9.822;2023-03-19T08:43:48;4.72;;;2.45;;
79212;SDS011;68639;52.380;9.822;2023-03-19T08:46:13;5.95;;;2.35;;
79212;SDS011;68639;52.380;9.822;2023-03-19T08:48:38;5.45;;;2.40;;
79212;SDS011;68639;52.380;9.822;2023-03-19T08:51:03;8.10;;;2.60;;
79212;SDS011;68639;52.380;9.822;2023-03-19T08:53:29;6.28;;;2.30;;
79212;SDS011;68639;52.380;9.822;2023-03-19T08:55:59;4.25;;;2.40;;
79212;SDS011;68639;52.380;9.822;2023-03-19T08:58:25;7.10;;;2.60;;
79212;SDS011;68639;52.380;9.822;2023-03-19T09:00:51;5.93;;;2.75;;
79212;SDS011;68639;52.380;9.822;2023-03-19T09:03:17;6.75;;;2.55;;
79212;SDS011;68639;52.380;9.822;2023-03-19T09:05:43;5.80;;;2.20;;
79212;SDS011;68639;52.380;9.822;2023-03-19T09:08:08;7.57;;;2.28;;
79212;SDS011;68639;52.380;9.822;2023-03-19T09:10:33;5.47;;;2.00;;
79212;SDS011;68639;52.380;9.822;2023-03-19T09:12:59;4.65;;;1.98;;
79212;SDS011;68639;52.380;9.822;2023-03-19T09:15:24;5.63;;;2.03;;
79212;SDS011;68639;52.380;9.822;2023-03-19T09:17:50;4.25;;;1.80;;
79212;SDS011;68639;52.380;9.822;2023-03-19T09:20:15;5.78;;;2.20;;
79212;SDS011;68639;52.380;9.822;2023-03-19T09:22:41;3.47;;;1.85;;
79212;SDS011;68639;52.380;9.822;2023-03-19T09:25:06;6.28;;;2.03;;
79212;SDS011;68639;52.380;9.822;2023-03-19T09:27:32;3.15;;;1.90;;
79212;SDS011;68639;52.380;9.822;2023-03-19T09:29:57;4.60;;;2.10;;
79212;SDS011;68639;52.380;9.822;2023-03-19T09:32:22;4.32;;;1.98;;
79212;SDS011;68639;52.380;9.822;2023-03-19T09:34:48;7.57;;;2.25;;
79212;SDS011;68639;52.380;9.822;2023-03-19T09:37:13;7.72;;;1.83;;
79212;SDS011;68639;52.380;9.822;2023-03-19T09:39:38;6.35;;;2.28;;
79212;SDS011;68639;52.380;9.822;2023-03-19T09:44:30;5.93;;;1.88;;
79212;SDS011;68639;52.380;9.822;2023-03-19T09:49:28;5.00;;;1.90;;
79212;SDS011;68639;52.380;9.822;2023-03-19T09:54:31;5.80;;;1.80;;
79212;SDS011;68639;52.380;9.822;2023-03-19T09:56:57;4.90;;;2.00;;
79212;SDS011;68639;52.380;9.822;2023-03-19T09:59:23;5.47;;;2.20;;
79212;SDS011;68639;52.380;9.822;2023-03-19T10:01:52;3.40;;;1.52;;
79212;SDS011;68639;52.380;9.822;2023-03-19T10:06:55;4.68;;;1.60;;
79212;SDS011;68639;52.380;9.822;2023-03-19T10:09:39;3.70;;;1.50;;
79212;SDS011;68639;52.380;9.822;2023-03-19T10:12:15;4.38;;;1.55;;
79212;SDS011;68639;52.380;9.822;2023-03-19T10:17:11;4.07;;;1.27;;
79212;SDS011;68639;52.380;9.822;2023-03-19T10:19:54;2.85;;;1.30;;
79212;SDS011;68639;52.380;9.822;2023-03-19T10:22:22;4.78;;;1.45;;
79212;SDS011;68639;52.380;9.822;2023-03-19T10:24:48;3.95;;;1.50;;
79212;SDS011;68639;52.380;9.822;2023-03-19T10:27:15;6.22;;;1.50;;
79212;SDS011;68639;52.380;9.822;2023-03-19T10:29:41;4.75;;;1.42;;
79212;SDS011;68639;52.380;9.822;2023-03-19T10:32:17;5.32;;;1.55;;
79212;SDS011;68639;52.380;9.822;2023-03-19T10:34:44;11.75;;;2.05;;
79212;SDS011;68639;52.380;9.822;2023-03-19T10:37:13;4.15;;;1.55;;
79212;SDS011;68639;52.380;9.822;2023-03-19T10:39:39;4.70;;;1.50;;
79212;SDS011;68639;52.380;9.822;2023-03-19T10:47:15;20.27;;;2.75;;
79212;SDS011;68639;52.380;9.822;2023-03-19T10:49:40;17.15;;;3.00;;
79212;SDS011;68639;52.380;9.822;2023-03-19T10:52:15;6.28;;;2.20;;
79212;SDS011;68639;52.380;9.822;2023-03-19T10:54:42;6.60;;;1.85;;
79212;SDS011;68639;52.380;9.822;2023-03-19T10:57:17;5.28;;;1.70;;
79212;SDS011;68639;52.380;9.822;2023-03-19T10:59:45;5.32;;;1.88;;
79212;SDS011;68639;52.380;9.822;2023-03-19T11:02:18;5.35;;;1.50;;
79212;SDS011;68639;52.380;9.822;2023-03-19T11:04:44;5.05;;;1.30;;
79212;SDS011;68639;52.380;9.822;2023-03-19T11:07:11;4.43;;;1.52;;
79212;SDS011;68639;52.380;9.822;2023-03-19T11:09:40;6.00;;;1.85;;
79212;SDS011;68639;52.380;9.822;2023-03-19T11:12:20;6.97;;;1.60;;
79212;SDS011;68639;52.380;9.822;2023-03-19T11:14:46;4.95;;;1.23;;
79212;SDS011;68639;52.380;9.822;2023-03-19T11:19:57;6.40;;;1.80;;
79212;SDS011;68639;52.380;9.822;2023-03-19T11:27:33;4.80;;;1.60;;
79212;SDS011;68639;52.380;9.822;2023-03-19T11:29:59;4.40;;;1.60;;
79212;SDS011;68639;52.380;9.822;2023-03-19T11:35:20;6.97;;;1.80;;
79212;SDS011;68639;52.380;9.822;2023-03-19T11:37:59;6.60;;;1.60;;
79212;SDS011;68639;52.380;9.822;2023-03-19T11:45:47;6.13;;;1.75;;
79212;SDS011;68639;52.380;9.822;2023-03-19T11:53:52;7.65;;;2.08;;
79212;SDS011;68639;52.380;9.822;2023-03-19T12:01:36;4.45;;;1.52;;
79212;SDS011;68639;52.380;9.822;2023-03-19T12:06:53;6.45;;;1.90;;
79212;SDS011;68639;52.380;9.822;2023-03-19T12:12:20;5.70;;;1.90;;
79212;SDS011;68639;52.380;9.822;2023-03-19T12:15:23;6.15;;;1.92;;
79212;SDS011;68639;52.380;9.822;2023-03-19T12:17:43;5.35;;;2.20;;
79212;SDS011;68639;52.380;9.822;2023-03-19T12:28:34;5.55;;;2.03;;
79212;SDS011;68639;52.380;9.822;2023-03-19T12:36:08;4.38;;;1.63;;
79212;SDS011;68639;52.380;9.822;2023-03-19T12:38:40;4.32;;;2.00;;
79212;SDS011;68639;52.380;9.822;2023-03-19T12:41:13;6.78;;;1.90;;
79212;SDS011;68639;52.380;9.822;2023-03-19T12:46:30;5.25;;;1.40;;
79212;SDS011;68639;52.380;9.822;2023-03-19T12:49:16;6.53;;;1.80;;
79212;SDS011;68639;52.380;9.822;2023-03-19T12:51:44;6.75;;;2.00;;
79212;SDS011;68639;52.380;9.822;2023-03-19T12:54:12;7.97;;;1.75;;
79212;SDS011;68639;52.380;9.822;2023-03-19T12:59:14;3.80;;;1.40;;
79212;SDS011;68639;52.380;9.822;2023-03-19T13:01:46;4.15;;;1.17;;
79212;SDS011;68639;52.380;9.822;2023-03-19T13:06:48;4.95;;;1.50;;
79212;SDS011;68639;52.380;9.822;2023-03-19T13:09:23;6.53;;;2.10;;
79212;SDS011;68639;52.380;9.822;2023-03-19T13:11:56;4.82;;;1.52;;
79212;SDS011;68639;52.380;9.822;2023-03-19T13:19:58;4.47;;;1.40;;
79212;SDS011;68639;52.380;9.822;2023-03-19T13:22:05;4.85;;;1.52;;
79212;SDS011;68639;52.380;9.822;2023-03-19T13:24:33;4.05;;;1.50;;
79212;SDS011;68639;52.380;9.822;2023-03-19T13:27:00;3.78;;;1.40;;
79212;SDS011;68639;52.380;9.822;2023-03-19T13:29:29;3.60;;;1.42;;
79212;SDS011;68639;52.380;9.822;2023-03-19T13:31:59;3.40;;;1.50;;
79212;SDS011;68639;52.380;9.822;2023-03-19T13:34:25;4.95;;;1.55;;
79212;SDS011;68639;52.380;9.822;2023-03-19T13:36:52;5.78;;;1.83;;
79212;SDS011;68639;52.380;9.822;2023-03-19T13:39:19;3.90;;;1.60;;
79212;SDS011;68639;52.380;9.822;2023-03-19T13:44:33;4.32;;;1.55;;
79212;SDS011;68639;52.380;9.822;2023-03-19T13:46:59;3.67;;;1.70;;
79212;SDS011;68639;52.380;9.822;2023-03-19T13:49:32;8.18;;;1.95;;
79212;SDS011;68639;52.380;9.822;2023-03-19T13:52:02;4.57;;;1.80;;
79212;SDS011;68639;52.380;9.822;2023-03-19T13:54:43;4.25;;;1.70;;
79212;SDS011;68639;52.380;9.822;2023-03-19T13:59:38;5.05;;;1.90;;
79212;SDS011;68639;52.380;9.822;2023-03-19T14:04:56;5.05;;;1.95;;
79212;SDS011;68639;52.380;9.822;2023-03-19T14:07:23;5.65;;;2.50;;
79212;SDS011;68639;52.380;9.822;2023-03-19T14:12:24;4.60;;;2.40;;
79212;SDS011;68639;52.380;9.822;2023-03-19T14:14:54;7.80;;;3.50;;
79212;SDS011;68639;52.380;9.822;2023-03-19T14:17:26;5.38;;;2.65;;
79212;SDS011;68639;52.380;9.822;2023-03-19T14:19:54;5.82;;;3.20;;
79212;SDS011;68639;52.380;9.822;2023-03-19T14:22:28;6.63;;;3.25;;
79212;SDS011;68639;52.380;9.822;2023-03-19T14:25:50;4.88;;;3.33;;
79212;SDS011;68639;52.380;9.822;2023-03-19T14:28:22;9.85;;;3.75;;
79212;SDS011;68639;52.380;9.822;2023-03-19T14:30:44;5.95;;;3.47;;
79212;SDS011;68639;52.380;9.822;2023-03-19T14:33:17;5.78;;;3.47;;
79212;SDS011;68639;52.380;9.822;2023-03-19T14:35:44;6.28;;;3.75;;
79212;SDS011;68639;52.380;9.822;2023-03-19T14:38:13;6.78;;;4.22;;
79212;SDS011;68639;52.380;9.822;2023-03-19T14:40:42;6.25;;;3.60;;
79212;SDS011;68639;52.380;9.822;2023-03-19T14:53:18;7.88;;;4.55;;
79212;SDS011;68639;52.380;9.822;2023-03-19T14:55:49;6.57;;;3.67;;
79212;SDS011;68639;52.380;9.822;2023-03-19T14:58:15;6.68;;;3.90;;
79212;SDS011;68639;52.380;9.822;2023-03-19T15:00:50;7.68;;;4.15;;
79212;SDS011;68639;52.380;9.822;2023-03-19T15:03:20;6.22;;;3.78;;
79212;SDS011;68639;52.380;9.822;2023-03-19T15:05:46;6.47;;;3.17;;
79212;SDS011;68639;52.380;9.822;2023-03-19T15:08:16;6.63;;;3.70;;
79212;SDS011;68639;52.380;9.822;2023-03-19T15:18:31;6.57;;;3.13;;
79212;SDS011;68639;52.380;9.822;2023-03-19T15:20:56;5.05;;;2.95;;
79212;SDS011;68639;52.380;9.822;2023-03-19T15:23:23;6.82;;;3.50;;
79212;SDS011;68639;52.380;9.822;2023-03-19T15:25:50;4.72;;;3.28;;
79212;SDS011;68639;52.380;9.822;2023-03-19T15:28:17;4.53;;;3.13;;
79212;SDS011;68639;52.380;9.822;2023-03-19T15:30:42;4.35;;;2.97;;
79212;SDS011;68639;52.380;9.822;2023-03-19T15:33:18;5.00;;;3.60;;
79212;SDS011;68639;52.380;9.822;2023-03-19T15:35:44;6.18;;;3.80;;
79212;SDS011;68639;52.380;9.822;2023-03-19T15:38:10;6.55;;;3.70;;
79212;SDS011;68639;52.380;9.822;2023-03-19T15:40:36;9.55;;;3.70;;
79212;SDS011;68639;52.380;9.822;2023-03-19T15:43:02;6.05;;;3.80;;
79212;SDS011;68639;52.380;9.822;2023-03-19T15:45:28;5.32;;;3.75;;
79212;SDS011;68639;52.380;9.822;2023-03-19T15:48:05;5.85;;;3.90;;
79212;SDS011;68639;52.380;9.822;2023-03-19T15:50:32;6.13;;;3.90;;
79212;SDS011;68639;52.380;9.822;2023-03-19T15:52:59;9.85;;;3.70;;
79212;SDS011;68639;52.380;9.822;2023-03-19T15:55:26;8.52;;;3.80;;
79212;SDS011;68639;52.380;9.822;2023-03-19T15:57:52;6.05;;;4.20;;
79212;SDS011;68639;52.380;9.822;2023-03-19T16:00:19;6.05;;;3.50;;
79212;SDS011;68639;52.380;9.822;2023-03-19T16:02:45;11.00;;;3.55;;
79212;SDS011;68639;52.380;9.822;2023-03-19T16:05:24;6.15;;;3.92;;
79212;SDS011;68639;52.380;9.822;2023-03-19T16:07:54;7.65;;;4.03;;
79212;SDS011;68639;52.380;9.822;2023-03-19T16:10:29;8.20;;;3.90;;
79212;SDS011;68639;52.380;9.822;2023-03-19T16:12:55;8.30;;;4.10;;
79212;SDS011;68639;52.380;9.822;2023-03-19T16:17:46;5.65;;;4.00;;
79212;SDS011;68639;52.380;9.822;2023-03-19T16:20:14;5.88;;;3.70;;
79212;SDS011;68639;52.380;9.822;2023-03-19T16:22:40;4.95;;;3.70;;
79212;SDS011;68639;52.380;9.822;2023-03-19T16:25:12;6.05;;;3.80;;
79212;SDS011;68639;52.380;9.822;2023-03-19T16:27:39;8.43;;;3.88;;
79212;SDS011;68639;52.380;9.822;2023-03-19T16:30:14;6.72;;;4.20;;